createdAt,value
2018-12-14T00:00:34.210Z,-0.30
2018-12-14T00:03:00.915Z,-0.40
2018-12-14T00:05:27.601Z,-0.40
2018-12-14T00:07:54.305Z,-0.40
2018-12-14T00:10:22.226Z,-0.40
2018-12-14T00:12:49.039Z,-0.40
2018-12-14T00:15:15.729Z,-0.40
2018-12-14T00:17:42.832Z,-0.30
2018-12-14T00:20:09.550Z,-0.20
2018-12-14T00:22:36.254Z,-0.20
2018-12-14T00:25:03.289Z,-0.20
2018-12-14T00:27:29.989Z,-0.20
2018-12-14T00:29:56.914Z,-0.20
2018-12-14T00:32:23.723Z,-0.30
2018-12-14T00:34:50.430Z,-0.20
2018-12-14T00:37:17.126Z,-0.20
2018-12-14T00:39:43.831Z,-0.20
2018-12-14T00:42:10.937Z,-0.20
2018-12-14T00:44:37.751Z,-0.30
2018-12-14T00:47:04.455Z,-0.20
2018-12-14T00:49:38.079Z,-0.30
2018-12-14T00:52:04.782Z,-0.30
2018-12-14T00:54:31.495Z,-0.30
2018-12-14T00:56:58.182Z,-0.30
2018-12-14T00:59:24.898Z,-0.30
2018-12-14T01:01:51.603Z,-0.30
2018-12-14T01:04:18.302Z,-0.30
2018-12-14T01:06:45.006Z,-0.30
2018-12-14T01:09:11.702Z,-0.30
2018-12-14T01:11:38.451Z,-0.30
2018-12-14T01:14:05.151Z,-0.30
2018-12-14T01:16:31.845Z,-0.30
2018-12-14T01:18:58.542Z,-0.40
2018-12-14T01:21:25.243Z,-0.30
2018-12-14T01:23:51.950Z,-0.30
2018-12-14T01:26:18.648Z,-0.40
2018-12-14T01:28:45.342Z,-0.40
2018-12-14T01:31:12.034Z,-0.40
2018-12-14T01:33:38.731Z,-0.40
2018-12-14T01:36:05.422Z,-0.40
2018-12-14T01:38:32.118Z,-0.40
2018-12-14T01:40:58.851Z,-0.40
2018-12-14T01:43:25.722Z,-0.40
2018-12-14T01:45:52.420Z,-0.40
2018-12-14T01:48:19.623Z,-0.50
2018-12-14T01:50:46.430Z,-0.40
2018-12-14T01:53:13.118Z,-0.40
2018-12-14T01:55:39.822Z,-0.40
2018-12-14T01:58:06.510Z,-0.40
2018-12-14T02:00:33.374Z,-0.40
2018-12-14T02:03:00.067Z,-0.40
2018-12-14T02:05:26.822Z,-0.40
2018-12-14T02:07:54.261Z,-0.30
2018-12-14T02:10:21.035Z,-0.30
2018-12-14T02:12:47.778Z,-0.30
2018-12-14T02:15:14.495Z,-0.30
2018-12-14T02:17:41.190Z,-0.30
2018-12-14T02:20:07.907Z,-0.30
2018-12-14T02:22:34.594Z,-0.30
2018-12-14T02:25:01.315Z,-0.30
2018-12-14T02:27:28.018Z,-0.30
2018-12-14T02:29:54.763Z,-0.40
2018-12-14T02:32:22.678Z,-0.40
2018-12-14T02:34:49.562Z,-0.40
2018-12-14T02:37:16.334Z,-0.40
2018-12-14T02:39:43.183Z,-0.40
2018-12-14T02:42:09.879Z,-0.40
2018-12-14T02:44:36.603Z,-0.50
2018-12-14T02:47:03.291Z,-0.50
2018-12-14T02:49:29.997Z,-0.50
2018-12-14T02:51:56.786Z,-0.50
2018-12-14T02:54:23.514Z,-0.50
2018-12-14T02:56:50.240Z,-0.40
2018-12-14T02:59:16.935Z,-0.50
2018-12-14T03:01:43.660Z,-0.50
2018-12-14T03:04:10.355Z,-0.40
2018-12-14T03:06:37.084Z,-0.50
2018-12-14T03:09:04.806Z,-0.50
2018-12-14T03:11:31.553Z,-0.50
2018-12-14T03:13:58.253Z,-0.50
2018-12-14T03:16:24.973Z,-0.50
2018-12-14T03:18:51.671Z,-0.50
2018-12-14T03:21:18.390Z,-0.50
2018-12-14T03:23:45.088Z,-0.50
2018-12-14T03:26:11.938Z,-0.50
2018-12-14T03:28:38.643Z,-0.40
2018-12-14T03:31:05.363Z,-0.40
2018-12-14T03:33:32.058Z,-0.50
2018-12-14T03:35:58.781Z,-0.50
2018-12-14T03:38:25.475Z,-0.40
2018-12-14T03:40:52.199Z,-0.40
2018-12-14T03:43:18.893Z,-0.50
2018-12-14T03:45:45.628Z,-0.50
2018-12-14T03:48:12.418Z,-0.50
2018-12-14T03:50:39.178Z,-0.50
2018-12-14T03:53:05.882Z,-0.50
2018-12-14T03:55:32.609Z,-0.50
2018-12-14T03:57:59.618Z,-0.50
2018-12-14T04:00:26.659Z,-0.50
2018-12-14T04:02:53.575Z,-0.50
2018-12-14T04:05:20.730Z,-0.50
2018-12-14T04:07:47.419Z,-0.50
2018-12-14T04:10:14.170Z,-0.50
2018-12-14T04:12:41.891Z,-0.40
2018-12-14T04:15:09.031Z,-0.40
2018-12-14T04:17:35.720Z,-0.50
2018-12-14T04:20:02.706Z,-0.50
2018-12-14T04:22:29.435Z,-0.50
2018-12-14T04:25:03.467Z,-0.50
2018-12-14T04:27:30.210Z,-0.50
2018-12-14T04:29:56.912Z,-0.50
2018-12-14T04:32:23.638Z,-0.50
2018-12-14T04:34:50.345Z,-0.60
2018-12-14T04:37:17.081Z,-0.60
2018-12-14T04:39:43.784Z,-0.60
2018-12-14T04:42:10.511Z,-0.60
2018-12-14T04:44:37.209Z,-0.60
2018-12-14T04:47:04.150Z,-0.60
2018-12-14T04:49:31.177Z,-0.70
2018-12-14T04:51:57.898Z,-0.60
2018-12-14T04:54:24.595Z,-0.60
2018-12-14T04:56:51.319Z,-0.60
2018-12-14T04:59:18.015Z,-0.60
2018-12-14T05:01:44.730Z,-0.60
2018-12-14T05:04:11.423Z,-0.60
2018-12-14T05:06:38.142Z,-0.60
2018-12-14T05:09:04.987Z,-0.60
2018-12-14T05:11:31.874Z,-0.60
2018-12-14T05:13:58.570Z,-0.60
2018-12-14T05:16:25.298Z,-0.70
2018-12-14T05:18:51.995Z,-0.70
2018-12-14T05:21:18.714Z,-0.70
2018-12-14T05:23:45.405Z,-0.70
2018-12-14T05:26:12.126Z,-0.70
2018-12-14T05:28:38.826Z,-0.70
2018-12-14T05:31:05.543Z,-0.70
2018-12-14T05:33:39.265Z,-0.70
2018-12-14T05:36:05.998Z,-0.70
2018-12-14T05:38:32.690Z,-0.70
2018-12-14T05:41:06.305Z,-0.70
2018-12-14T05:43:32.997Z,-0.80
2018-12-14T05:45:59.719Z,-0.80
2018-12-14T05:48:26.438Z,-0.70
2018-12-14T05:50:53.163Z,-0.70
2018-12-14T05:53:19.889Z,-0.80
2018-12-14T05:55:46.615Z,-0.80
2018-12-14T05:58:13.306Z,-0.70
2018-12-14T06:00:40.035Z,-0.70
2018-12-14T06:03:07.726Z,-0.70
2018-12-14T06:05:34.454Z,-0.70
2018-12-14T06:08:01.150Z,-0.70
2018-12-14T06:10:27.847Z,-0.70
2018-12-14T06:12:54.571Z,-0.70
2018-12-14T06:15:21.394Z,-0.80
2018-12-14T06:17:48.121Z,-0.90
2018-12-14T06:20:14.822Z,-0.80
2018-12-14T06:22:41.547Z,-0.80
2018-12-14T06:25:08.243Z,-0.80
2018-12-14T06:27:34.986Z,-0.80
2018-12-14T06:30:01.686Z,-0.90
2018-12-14T06:32:28.411Z,-0.90
2018-12-14T06:34:55.102Z,-0.90
2018-12-14T06:37:22.142Z,-0.90
2018-12-14T06:39:49.034Z,-0.90
2018-12-14T06:42:16.281Z,-0.90
2018-12-14T06:44:43.031Z,-0.90
2018-12-14T06:47:09.755Z,-0.90
2018-12-14T06:49:36.474Z,-0.90
2018-12-14T06:52:03.170Z,-0.90
2018-12-14T06:54:29.886Z,-0.80
2018-12-14T06:56:56.579Z,-0.80
2018-12-14T06:59:23.307Z,-0.90
2018-12-14T07:01:50.007Z,-0.90
2018-12-14T07:04:16.728Z,-0.80
2018-12-14T07:06:43.418Z,-0.80
2018-12-14T07:09:10.135Z,-0.80
2018-12-14T07:11:36.826Z,-0.90
2018-12-14T07:14:03.698Z,-0.90
2018-12-14T07:16:30.562Z,-0.80
2018-12-14T07:18:57.263Z,-0.80
2018-12-14T07:21:25.883Z,-0.80
2018-12-14T07:23:52.587Z,-0.80
2018-12-14T07:26:19.312Z,-0.80
2018-12-14T07:28:46.007Z,-0.80
2018-12-14T07:31:12.707Z,-0.80
2018-12-14T07:33:39.389Z,-0.80
2018-12-14T07:36:06.115Z,-0.80
2018-12-14T07:38:32.810Z,-0.80
2018-12-14T07:40:59.510Z,-0.80
2018-12-14T07:43:28.399Z,-0.70
2018-12-14T07:45:55.117Z,-0.80
2018-12-14T07:48:21.815Z,-0.80
2018-12-14T07:50:48.507Z,-0.80
2018-12-14T07:53:15.211Z,-0.80
2018-12-14T07:55:48.741Z,-0.80
2018-12-14T07:58:15.442Z,-0.80
2018-12-14T08:00:42.174Z,-0.80
2018-12-14T08:03:08.870Z,-0.80
2018-12-14T08:05:35.566Z,-0.70
2018-12-14T08:08:02.269Z,-0.70
2018-12-14T08:10:28.982Z,-0.70
2018-12-14T08:12:56.115Z,-0.70
2018-12-14T08:15:22.835Z,-0.70
2018-12-14T08:17:49.545Z,-0.70
2018-12-14T08:20:17.286Z,-0.60
2018-12-14T08:22:44.171Z,-0.60
2018-12-14T08:25:10.985Z,-0.60
2018-12-14T08:27:37.707Z,-0.70
2018-12-14T08:30:04.694Z,-0.70
2018-12-14T08:32:31.410Z,-0.70
2018-12-14T08:34:58.106Z,-0.60
2018-12-14T08:37:24.806Z,-0.60
2018-12-14T08:39:51.503Z,-0.60
2018-12-14T08:42:18.206Z,-0.60
2018-12-14T08:44:44.911Z,-0.60
2018-12-14T08:47:11.616Z,-0.50
2018-12-14T08:49:38.314Z,-0.50
2018-12-14T08:52:05.016Z,-0.50
2018-12-14T08:54:31.719Z,-0.40
2018-12-14T08:56:58.450Z,-0.50
2018-12-14T08:59:25.150Z,-0.50
2018-12-14T09:01:51.867Z,-0.60
2018-12-14T09:04:18.559Z,-0.60
2018-12-14T09:06:45.261Z,-0.50
2018-12-14T09:09:11.962Z,-0.50
2018-12-14T09:11:38.671Z,-0.50
2018-12-14T09:14:05.376Z,-0.40
2018-12-14T09:16:32.371Z,-0.40
2018-12-14T09:18:59.080Z,-0.40
2018-12-14T09:21:25.778Z,-0.40
2018-12-14T09:23:53.251Z,-0.40
2018-12-14T09:26:19.999Z,-0.40
2018-12-14T09:28:46.914Z,-0.40
2018-12-14T09:31:14.032Z,-0.30
2018-12-14T09:33:40.734Z,-0.30
2018-12-14T09:36:07.430Z,-0.20
2018-12-14T09:38:34.262Z,-0.20
2018-12-14T09:41:00.958Z,-0.20
2018-12-14T09:43:27.666Z,-0.30
2018-12-14T09:45:54.398Z,-0.20
2018-12-14T09:48:21.109Z,-0.20
2018-12-14T09:50:47.814Z,-0.20
2018-12-14T09:53:14.518Z,-0.20
2018-12-14T09:55:41.215Z,-0.20
2018-12-14T09:58:14.762Z,-0.30
2018-12-14T10:00:41.445Z,-0.30
2018-12-14T10:03:08.151Z,-0.30
2018-12-14T10:05:34.845Z,-0.30
2018-12-14T10:08:01.555Z,-0.20
2018-12-14T10:10:28.269Z,-0.10
2018-12-14T10:12:54.986Z,-0.10
2018-12-14T10:15:21.692Z,-0.10
2018-12-14T10:17:48.410Z,-0.10
2018-12-14T10:20:15.109Z,-0.10
2018-12-14T10:22:41.876Z,-0.10
2018-12-14T10:25:08.623Z,-0.10
2018-12-14T10:27:35.735Z,-0.10
2018-12-14T10:30:02.443Z,-0.10
2018-12-14T10:32:29.150Z,0.00
2018-12-14T10:34:55.846Z,0.00
2018-12-14T10:37:22.551Z,0.00
2018-12-14T10:39:49.261Z,-0.10
2018-12-14T10:42:15.958Z,0.00
2018-12-14T10:44:42.674Z,0.00
2018-12-14T10:47:09.378Z,0.00
2018-12-14T10:49:36.174Z,0.00
2018-12-14T10:52:02.994Z,0.10
2018-12-14T10:54:29.918Z,0.10
2018-12-14T10:56:56.610Z,0.10
2018-12-14T10:59:23.314Z,0.10
2018-12-14T11:01:55.942Z,0.10
2018-12-14T11:04:23.914Z,0.20
2018-12-14T11:06:50.838Z,0.20
2018-12-14T11:09:17.543Z,0.20
2018-12-14T11:11:44.260Z,0.20
2018-12-14T11:14:13.952Z,0.30
2018-12-14T11:16:39.683Z,0.30
2018-12-14T11:19:06.390Z,0.30
2018-12-14T11:21:33.086Z,0.30
2018-12-14T11:23:59.811Z,0.30
2018-12-14T11:26:26.514Z,0.20
2018-12-14T11:28:53.223Z,0.20
2018-12-14T11:31:19.938Z,0.10
2018-12-14T11:33:46.650Z,0.10
2018-12-14T11:36:13.567Z,0.20
2018-12-14T11:38:40.278Z,0.10
2018-12-14T11:41:06.983Z,0.10
2018-12-14T11:43:33.694Z,0.10
2018-12-14T11:46:00.394Z,0.10
2018-12-14T11:48:27.097Z,0.00
2018-12-14T11:50:53.815Z,0.00
2018-12-14T11:53:20.528Z,0.10
2018-12-14T11:55:47.455Z,0.10
2018-12-14T11:58:14.170Z,0.10
2018-12-14T12:00:40.899Z,0.20
2018-12-14T12:03:07.895Z,0.20
2018-12-14T12:05:34.601Z,0.10
2018-12-14T12:08:01.623Z,0.10
2018-12-14T12:10:28.325Z,0.20
2018-12-14T12:12:55.038Z,0.20
2018-12-14T12:15:21.751Z,0.20
2018-12-14T12:17:49.551Z,0.20
2018-12-14T12:20:16.570Z,0.20
2018-12-14T12:22:43.274Z,0.20
2018-12-14T12:25:09.978Z,0.20
2018-12-14T12:27:36.796Z,0.30
2018-12-14T12:30:03.654Z,0.30
2018-12-14T12:32:30.362Z,0.30
2018-12-14T12:34:57.066Z,0.30
2018-12-14T12:37:23.873Z,0.30
2018-12-14T12:39:50.590Z,0.30
2018-12-14T12:42:17.286Z,0.30
2018-12-14T12:44:44.004Z,0.20
2018-12-14T12:47:10.707Z,0.10
2018-12-14T12:49:37.412Z,0.10
2018-12-14T12:52:04.119Z,0.10
2018-12-14T12:54:30.813Z,0.10
2018-12-14T12:56:57.822Z,0.00
2018-12-14T12:59:25.285Z,0.00
2018-12-14T13:01:52.615Z,-0.10
2018-12-14T13:04:19.322Z,-0.10
2018-12-14T13:06:46.059Z,-0.10
2018-12-14T13:09:12.758Z,-0.10
2018-12-14T13:11:39.506Z,-0.20
2018-12-14T13:14:06.202Z,-0.20
2018-12-14T13:16:32.939Z,-0.30
2018-12-14T13:18:59.646Z,-0.30
2018-12-14T13:21:26.385Z,-0.30
2018-12-14T13:23:53.086Z,-0.30
2018-12-14T13:26:20.703Z,-0.30
2018-12-14T13:28:48.160Z,-0.30
2018-12-14T13:31:15.623Z,-0.30
2018-12-14T13:33:43.072Z,-0.30
2018-12-14T13:36:09.882Z,-0.30
2018-12-14T13:38:36.606Z,-0.30
2018-12-14T13:41:03.315Z,-0.40
2018-12-14T13:43:30.114Z,-0.40
2018-12-14T13:45:56.845Z,-0.30
2018-12-14T13:48:23.679Z,-0.40
2018-12-14T13:50:50.380Z,-0.40
2018-12-14T13:53:17.102Z,-0.40
2018-12-14T13:55:43.806Z,-0.40
2018-12-14T13:58:10.533Z,-0.50
2018-12-14T14:00:37.231Z,-0.50
2018-12-14T14:03:03.950Z,-0.40
2018-12-14T14:05:30.638Z,-0.40
2018-12-14T14:07:57.366Z,-0.40
2018-12-14T14:10:24.074Z,-0.40
2018-12-14T14:12:50.798Z,-0.40
2018-12-14T14:15:20.800Z,-0.40
2018-12-14T14:17:46.218Z,-0.40
2018-12-14T14:20:12.930Z,-0.40
2018-12-14T14:22:39.748Z,-0.40
2018-12-14T14:25:06.455Z,-0.40
2018-12-14T14:27:33.158Z,-0.40
2018-12-14T14:29:59.862Z,-0.50
2018-12-14T14:32:26.554Z,-0.40
2018-12-14T14:34:53.271Z,-0.40
2018-12-14T14:37:20.947Z,-0.50
2018-12-14T14:39:48.510Z,-0.50
2018-12-14T14:42:15.241Z,-0.60
2018-12-14T14:44:41.943Z,-0.50
2018-12-14T14:47:08.676Z,-0.50
2018-12-14T14:49:35.386Z,-0.50
2018-12-14T14:52:02.089Z,-0.50
2018-12-14T14:54:28.805Z,-0.50
2018-12-14T14:56:55.558Z,-0.50
2018-12-14T14:59:22.261Z,-0.50
2018-12-14T15:01:48.953Z,-0.60
2018-12-14T15:04:15.934Z,-0.60
2018-12-14T15:06:42.674Z,-0.60
2018-12-14T15:09:09.782Z,-0.60
2018-12-14T15:11:36.501Z,-0.50
2018-12-14T15:14:03.194Z,-0.50
2018-12-14T15:16:29.903Z,-0.50
2018-12-14T15:18:56.617Z,-0.50
2018-12-14T15:21:23.327Z,-0.60
2018-12-14T15:23:50.018Z,-0.60
2018-12-14T15:26:17.427Z,-0.60
2018-12-14T15:28:44.325Z,-0.60
2018-12-14T15:31:11.031Z,-0.60
2018-12-14T15:33:37.733Z,-0.60
2018-12-14T15:36:04.429Z,-0.50
2018-12-14T15:38:31.121Z,-0.60
2018-12-14T15:40:57.935Z,-0.50
2018-12-14T15:43:24.655Z,-0.50
2018-12-14T15:45:51.366Z,-0.50
2018-12-14T15:48:18.059Z,-0.50
2018-12-14T15:50:45.671Z,-0.50
2018-12-14T15:53:12.368Z,-0.50
2018-12-14T15:55:39.067Z,-0.50
2018-12-14T15:58:05.760Z,-0.60
2018-12-14T16:00:32.466Z,-0.50
2018-12-14T16:02:59.211Z,-0.60
2018-12-14T16:05:25.910Z,-0.60
2018-12-14T16:07:52.602Z,-0.60
2018-12-14T16:10:19.315Z,-0.50
2018-12-14T16:12:46.023Z,-0.50
2018-12-14T16:15:12.731Z,-0.60
2018-12-14T16:17:39.422Z,-0.60
2018-12-14T16:20:07.544Z,-0.60
2018-12-14T16:22:34.347Z,-0.60
2018-12-14T16:25:01.049Z,-0.60
2018-12-14T16:27:27.756Z,-0.60
2018-12-14T16:29:54.454Z,-0.60
2018-12-14T16:32:21.153Z,-0.60
2018-12-14T16:34:47.910Z,-0.60
2018-12-14T16:37:14.610Z,-0.60
2018-12-14T16:39:41.307Z,-0.60
2018-12-14T16:42:08.013Z,-0.60
2018-12-14T16:44:34.718Z,-0.60
2018-12-14T16:47:01.422Z,-0.70
2018-12-14T16:49:28.121Z,-0.70
2018-12-14T16:51:54.831Z,-0.70
2018-12-14T16:54:21.534Z,-0.70
2018-12-14T16:56:48.251Z,-0.70
2018-12-14T16:59:14.944Z,-0.70
2018-12-14T17:01:41.654Z,-0.70
2018-12-14T17:04:08.356Z,-0.70
2018-12-14T17:06:35.062Z,-0.70
2018-12-14T17:09:01.827Z,-0.70
2018-12-14T17:11:28.542Z,-0.80
2018-12-14T17:13:55.256Z,-0.80
2018-12-14T17:16:21.954Z,-0.80
2018-12-14T17:18:48.653Z,-0.80
2018-12-14T17:21:15.374Z,-0.80
2018-12-14T17:23:42.471Z,-0.80
2018-12-14T17:26:09.171Z,-0.80
2018-12-14T17:28:36.171Z,-0.80
2018-12-14T17:31:02.870Z,-0.80
2018-12-14T17:33:36.627Z,-0.80
2018-12-14T17:36:03.327Z,-0.80
2018-12-14T17:38:30.023Z,-0.80
2018-12-14T17:40:56.726Z,-0.90
2018-12-14T17:43:23.427Z,-0.90
2018-12-14T17:45:50.151Z,-0.90
2018-12-14T17:48:16.854Z,-0.90
2018-12-14T17:50:43.548Z,-0.90
2018-12-14T17:53:10.250Z,-0.90
2018-12-14T17:55:36.938Z,-0.80
2018-12-14T17:58:03.847Z,-0.80
2018-12-14T18:00:30.856Z,-0.80
2018-12-14T18:02:57.571Z,-0.80
2018-12-14T18:05:24.270Z,-0.80
2018-12-14T18:07:51.079Z,-0.80
2018-12-14T18:10:17.788Z,-0.80
2018-12-14T18:12:44.498Z,-0.80
2018-12-14T18:15:11.207Z,-0.80
2018-12-14T18:17:37.919Z,-0.90
2018-12-14T18:20:04.830Z,-0.90
2018-12-14T18:22:31.849Z,-0.90
2018-12-14T18:24:58.853Z,-0.90
2018-12-14T18:27:25.578Z,-0.80
2018-12-14T18:29:52.370Z,-0.80
2018-12-14T18:32:19.071Z,-0.80
2018-12-14T18:34:45.771Z,-0.80
2018-12-14T18:37:12.475Z,-0.80
2018-12-14T18:39:39.180Z,-0.80
2018-12-14T18:42:05.890Z,-0.90
2018-12-14T18:44:32.586Z,-0.90
2018-12-14T18:46:59.293Z,-0.90
2018-12-14T18:49:25.990Z,-0.90
2018-12-14T18:51:52.694Z,-0.90
2018-12-14T18:54:19.432Z,-0.90
2018-12-14T18:56:46.171Z,-0.90
2018-12-14T18:59:13.118Z,-0.90
2018-12-14T19:01:39.814Z,-1.00
2018-12-14T19:04:06.542Z,-1.00
2018-12-14T19:06:33.358Z,-1.00
2018-12-14T19:09:00.057Z,-1.00
2018-12-14T19:11:26.919Z,-1.00
2018-12-14T19:13:53.618Z,-1.00
2018-12-14T19:16:20.401Z,-1.00
2018-12-14T19:18:47.099Z,-1.00
2018-12-14T19:21:13.821Z,-0.90
2018-12-14T19:23:40.718Z,-0.90
2018-12-14T19:26:08.365Z,-0.90
2018-12-14T19:28:35.374Z,-0.90
2018-12-14T19:31:02.780Z,-0.90
2018-12-14T19:33:29.654Z,-0.90
2018-12-14T19:35:56.619Z,-0.90
2018-12-14T19:38:23.515Z,-0.90
2018-12-14T19:40:51.505Z,-0.90
2018-12-14T19:43:18.351Z,-0.90
2018-12-14T19:45:45.185Z,-0.90
2018-12-14T19:48:11.987Z,-0.90
2018-12-14T19:50:39.308Z,-0.90
2018-12-14T19:53:05.998Z,-0.80
2018-12-14T19:55:32.723Z,-0.80
2018-12-14T19:57:59.414Z,-0.80
2018-12-14T20:00:26.147Z,-0.80
2018-12-14T20:02:52.851Z,-0.80
2018-12-14T20:05:19.571Z,-0.80
2018-12-14T20:07:46.264Z,-0.70
2018-12-14T20:10:13.006Z,-0.80
2018-12-14T20:12:39.702Z,-0.80
2018-12-14T20:15:06.422Z,-0.70
2018-12-14T20:17:33.126Z,-0.70
2018-12-14T20:19:59.852Z,-0.70
2018-12-14T20:22:26.542Z,-0.80
2018-12-14T20:24:53.266Z,-0.80
2018-12-14T20:27:20.067Z,-0.80
2018-12-14T20:29:46.786Z,-0.70
2018-12-14T20:32:13.978Z,-0.70
2018-12-14T20:34:41.094Z,-0.70
2018-12-14T20:37:07.792Z,-0.70
2018-12-14T20:39:34.515Z,-0.80
2018-12-14T20:42:01.211Z,-0.80
2018-12-14T20:44:27.894Z,-0.80
2018-12-14T20:46:54.610Z,-0.80
2018-12-14T20:49:21.311Z,-0.80
2018-12-14T20:51:48.030Z,-0.80
2018-12-14T20:54:14.730Z,-0.80
2018-12-14T20:56:41.446Z,-0.90
2018-12-14T20:59:08.151Z,-0.90
2018-12-14T21:01:34.871Z,-0.80
2018-12-14T21:04:01.566Z,-0.80
2018-12-14T21:06:28.277Z,-0.70
2018-12-14T21:08:54.969Z,-0.70
2018-12-14T21:11:21.723Z,-0.70
2018-12-14T21:13:48.452Z,-0.70
2018-12-14T21:16:15.159Z,-0.70
2018-12-14T21:18:41.890Z,-0.70
2018-12-14T21:21:08.590Z,-0.80
2018-12-14T21:23:35.319Z,-0.80
2018-12-14T21:26:02.018Z,-0.80
2018-12-14T21:28:28.742Z,-0.80
2018-12-14T21:30:55.439Z,-0.80
2018-12-14T21:33:22.175Z,-0.80
2018-12-14T21:35:48.879Z,-0.80
2018-12-14T21:38:15.566Z,-0.70
2018-12-14T21:40:42.290Z,-0.80
2018-12-14T21:43:08.986Z,-0.80
2018-12-14T21:45:35.711Z,-0.90
2018-12-14T21:48:02.406Z,-0.80
2018-12-14T21:50:29.130Z,-0.80
2018-12-14T21:52:55.831Z,-0.80
2018-12-14T21:55:22.549Z,-0.90
2018-12-14T21:57:49.457Z,-0.90
2018-12-14T22:00:16.194Z,-0.90
2018-12-14T22:02:42.891Z,-0.90
2018-12-14T22:05:09.620Z,-0.90
2018-12-14T22:07:36.322Z,-0.90
2018-12-14T22:10:03.303Z,-0.90
2018-12-14T22:12:30.011Z,-0.90
2018-12-14T22:14:56.743Z,-0.90
2018-12-14T22:17:23.446Z,-0.90
2018-12-14T22:19:50.174Z,-0.90
2018-12-14T22:22:16.881Z,-0.90
2018-12-14T22:24:43.604Z,-0.90
2018-12-14T22:27:10.298Z,-0.90
2018-12-14T22:29:37.030Z,-0.90
2018-12-14T22:32:03.733Z,-0.90
2018-12-14T22:34:30.459Z,-0.90
2018-12-14T22:36:57.154Z,-0.90
2018-12-14T22:39:24.305Z,-0.90
2018-12-14T22:41:51.024Z,-0.90
2018-12-14T22:44:21.407Z,-0.90
2018-12-14T22:46:46.944Z,-1.00
2018-12-14T22:49:13.751Z,-0.90
2018-12-14T22:51:40.466Z,-0.90
2018-12-14T22:54:07.199Z,-0.90
2018-12-14T22:56:34.122Z,-0.90
2018-12-14T22:59:00.834Z,-0.90
2018-12-14T23:01:27.562Z,-0.90
2018-12-14T23:03:54.262Z,-0.90
2018-12-14T23:06:21.023Z,-0.90
2018-12-14T23:08:47.727Z,-0.80
2018-12-14T23:11:14.455Z,-0.80
2018-12-14T23:13:41.161Z,-0.90
2018-12-14T23:16:07.989Z,-0.90
2018-12-14T23:18:34.804Z,-0.80
2018-12-14T23:21:01.534Z,-0.90
2018-12-14T23:23:28.234Z,-0.90
2018-12-14T23:26:01.846Z,-0.90
2018-12-14T23:28:28.559Z,-0.90
2018-12-14T23:30:55.286Z,-0.90
2018-12-14T23:33:21.983Z,-1.00
2018-12-14T23:35:48.702Z,-1.00
2018-12-14T23:38:15.430Z,-1.00
2018-12-14T23:40:42.171Z,-1.00
2018-12-14T23:43:08.878Z,-1.00
2018-12-14T23:45:35.598Z,-1.00
2018-12-14T23:48:02.297Z,-1.00
2018-12-14T23:50:29.027Z,-1.00
2018-12-14T23:52:55.721Z,-1.00
2018-12-14T23:55:22.646Z,-1.00
2018-12-14T23:57:49.342Z,-1.00
